Time;durP1;ratioP1;P1;durP2;ratioP2;P2;SDS_P1;SDS_P2;PMS_P1;PMS_P2;Temp;Humidity;BMP_temperature;BMP_pressure;BME280_temperature;BME280_humidity;BME280_pressure;Samples;Min_cycle;Max_cycle;Signal;HPM_P1;HPM_P2
2022/05/21 00:01:49;;;;;;;4.70;4.00;;;17.70;99.90;;;;;;5091997;28;20529;-73
2022/05/21 00:04:16;;;;;;;5.10;4.40;;;17.70;99.90;;;;;;5092564;28;20206;-73
2022/05/21 00:06:42;;;;;;;4.97;4.07;;;17.70;99.90;;;;;;5092956;28;20176;-73
2022/05/21 00:09:08;;;;;;;4.40;4.00;;;17.70;99.90;;;;;;5092348;28;20538;-73
2022/05/21 00:11:34;;;;;;;5.23;4.20;;;17.70;99.90;;;;;;5092264;28;20187;-73
2022/05/21 00:13:59;;;;;;;5.43;4.27;;;17.60;99.90;;;;;;5092415;28;20471;-74
2022/05/21 00:16:26;;;;;;;5.80;4.93;;;17.60;99.90;;;;;;5092276;28;20168;-73
2022/05/21 00:18:51;;;;;;;4.43;3.90;;;17.50;99.90;;;;;;5092316;28;20179;-73
2022/05/21 00:21:17;;;;;;;4.00;3.67;;;17.50;99.90;;;;;;5092124;28;20426;-73
2022/05/21 00:23:43;;;;;;;4.87;4.47;;;17.50;99.90;;;;;;5091475;28;20229;-74
2022/05/21 00:26:11;;;;;;;3.60;3.30;;;17.50;99.90;;;;;;5090530;28;20183;-73
2022/05/21 00:28:39;;;;;;;8.00;4.03;;;17.40;99.90;;;;;;5092018;28;20329;-73
2022/05/21 00:31:06;;;;;;;5.30;4.40;;;17.40;99.90;;;;;;5091516;28;20815;-73
2022/05/21 00:33:33;;;;;;;4.27;3.97;;;17.30;99.90;;;;;;5092293;28;20501;-73
2022/05/21 00:35:58;;;;;;;4.37;3.97;;;17.30;99.90;;;;;;5091900;28;20414;-73
2022/05/21 00:38:24;;;;;;;4.13;3.73;;;17.30;99.90;;;;;;5091977;28;20406;-73
2022/05/21 00:40:51;;;;;;;3.37;3.07;;;17.20;99.90;;;;;;5091422;28;20184;-73
2022/05/21 00:43:57;;;;;;;3.97;3.67;;;17.20;99.90;;;;;;5092367;28;20187;-73
2022/05/21 00:46:27;;;;;;;4.10;3.03;;;17.20;99.90;;;;;;5008991;28;20508;-73
2022/05/21 00:49:14;;;;;;;6.33;3.67;;;17.10;99.90;;;;;;5009507;28;20469;-73
2022/05/21 00:51:50;;;;;;;3.87;3.67;;;17.00;99.90;;;;;;5055631;28;20442;-73
2022/05/21 00:54:18;;;;;;;5.80;4.10;;;16.90;99.90;;;;;;5091999;28;20960;-73
2022/05/21 00:56:57;;;;;;;5.73;3.30;;;16.90;99.90;;;;;;5092227;28;20410;-73
2022/05/21 02:30:54;;;;;;;3.83;3.63;;;15.00;99.90;;;;;;5987357;23;20376;-69
2022/05/21 02:33:20;;;;;;;5.53;4.03;;;14.90;99.90;;;;;;5030062;28;20421;-73
2022/05/21 02:35:46;;;;;;;4.23;3.83;;;14.80;99.90;;;;;;5032564;28;20166;-73
2022/05/21 02:40:55;;;;;;;6.93;4.80;;;14.70;99.90;;;;;;5034198;28;20201;-72
2022/05/21 02:43:21;;;;;;;4.50;4.10;;;14.70;99.90;;;;;;5034142;28;20417;-72
2022/05/21 02:45:47;;;;;;;5.80;4.50;;;14.70;99.90;;;;;;5033962;28;20677;-73
2022/05/21 02:48:13;;;;;;;4.70;4.30;;;14.60;99.90;;;;;;5033590;28;20530;-74
2022/05/21 02:50:38;;;;;;;7.30;4.73;;;14.50;99.90;;;;;;5033530;28;20482;-72
2022/05/21 02:53:07;;;;;;;7.50;4.03;;;14.50;99.90;;;;;;5034033;28;20240;-72
2022/05/21 02:55:33;;;;;;;4.60;4.30;;;14.40;99.90;;;;;;5033762;28;20170;-73
2022/05/21 02:57:59;;;;;;;5.97;4.60;;;14.40;99.90;;;;;;5034088;28;20413;-72
2022/05/21 03:00:27;;;;;;;5.10;4.53;;;14.30;99.90;;;;;;5032738;28;20431;-71
2022/05/21 03:02:54;;;;;;;5.47;4.97;;;14.20;99.90;;;;;;5033495;28;20260;-72
2022/05/21 03:05:20;;;;;;;5.17;4.83;;;14.20;99.90;;;;;;5033366;28;20947;-74
2022/05/21 03:07:48;;;;;;;7.33;4.43;;;14.20;99.90;;;;;;5033876;28;20519;-73
2022/05/21 03:10:23;;;;;;;5.37;4.87;;;14.10;99.90;;;;;;5033481;28;20724;-73
2022/05/21 03:12:48;;;;;;;6.17;5.10;;;14.10;99.90;;;;;;5013722;28;20461;-73
2022/05/21 03:15:15;;;;;;;8.00;5.10;;;14.10;99.90;;;;;;5014106;28;20437;-72
2022/05/21 03:17:40;;;;;;;4.73;4.43;;;14.10;99.90;;;;;;5033686;28;20669;-74
2022/05/21 03:20:06;;;;;;;4.90;4.40;;;14.00;99.90;;;;;;5033380;28;20449;-72
2022/05/21 03:22:32;;;;;;;5.67;4.13;;;14.00;99.90;;;;;;5033058;28;20205;-73
2022/05/21 03:24:58;;;;;;;7.60;4.87;;;13.90;99.90;;;;;;5033436;28;20178;-73
2022/05/21 03:27:24;;;;;;;5.00;4.40;;;13.90;99.90;;;;;;5032986;28;20174;-72
2022/05/21 03:29:49;;;;;;;5.00;4.70;;;13.80;99.90;;;;;;5033293;28;20343;-73
2022/05/21 03:32:15;;;;;;;4.43;4.03;;;13.80;99.90;;;;;;5032471;28;20552;-73
2022/05/21 03:34:41;;;;;;;5.27;4.77;;;13.70;99.90;;;;;;5033535;28;20173;-73
2022/05/21 03:37:07;;;;;;;6.30;5.50;;;13.70;99.90;;;;;;5032899;28;20173;-72
2022/05/21 03:39:32;;;;;;;6.10;5.20;;;13.70;99.90;;;;;;5033127;28;20186;-73
2022/05/21 03:41:58;;;;;;;6.73;5.40;;;13.70;99.90;;;;;;5032619;28;20209;-73
2022/05/21 03:44:25;;;;;;;5.67;5.27;;;13.70;99.90;;;;;;5032971;28;20651;-72
2022/05/21 03:46:51;;;;;;;6.23;5.37;;;13.60;99.90;;;;;;5032832;28;20685;-73
2022/05/21 03:49:17;;;;;;;5.57;4.43;;;13.60;99.90;;;;;;5032646;28;20461;-72
2022/05/21 03:51:43;;;;;;;5.20;4.70;;;13.50;99.90;;;;;;5032559;28;20198;-72
2022/05/21 03:54:10;;;;;;;5.53;5.00;;;13.50;99.90;;;;;;5032846;28;20162;-73
2022/05/21 03:56:35;;;;;;;7.60;6.17;;;13.50;99.90;;;;;;5032808;28;20424;-73
2022/05/21 03:59:01;;;;;;;6.70;6.07;;;13.50;99.90;;;;;;5032720;28;20897;-73
2022/05/21 04:01:27;;;;;;;7.60;6.23;;;13.40;99.90;;;;;;5032218;28;20202;-72
2022/05/21 04:03:54;;;;;;;10.40;6.20;;;13.40;99.90;;;;;;5032748;28;20174;-72
2022/05/21 04:06:21;;;;;;;6.87;5.70;;;13.40;99.90;;;;;;5032519;28;20189;-73
2022/05/21 04:08:47;;;;;;;7.77;5.60;;;13.40;99.90;;;;;;5032568;28;20452;-72
2022/05/21 04:11:12;;;;;;;7.70;6.17;;;13.50;99.90;;;;;;5032221;28;20512;-73
2022/05/21 04:13:38;;;;;;;7.70;5.00;;;13.40;99.90;;;;;;5031859;28;20177;-73
2022/05/21 04:16:04;;;;;;;7.27;6.30;;;13.40;99.90;;;;;;5032025;28;20257;-74
2022/05/21 04:18:30;;;;;;;6.87;6.27;;;13.50;99.90;;;;;;5032478;28;20523;-72
2022/05/21 04:20:55;;;;;;;5.93;5.43;;;13.40;99.90;;;;;;5031866;28;20217;-72
2022/05/21 04:23:21;;;;;;;8.83;5.83;;;13.50;99.90;;;;;;5032288;28;20185;-72
2022/05/21 04:25:47;;;;;;;5.57;5.17;;;13.50;99.90;;;;;;5031985;28;20190;-72
2022/05/21 04:28:13;;;;;;;5.97;5.47;;;13.50;99.90;;;;;;5032375;28;20170;-73
2022/05/21 04:30:39;;;;;;;6.53;5.93;;;13.50;99.90;;;;;;5031580;28;20444;-72
2022/05/21 04:33:04;;;;;;;8.33;6.20;;;13.50;99.90;;;;;;5032285;28;20168;-72
2022/05/21 04:38:15;;;;;;;11.33;4.73;;;13.60;99.90;;;;;;5032399;28;20299;-72
2022/05/21 04:40:41;;;;;;;5.30;4.80;;;13.60;99.90;;;;;;5032366;28;20439;-73
2022/05/21 04:43:07;;;;;;;8.40;4.73;;;13.60;99.90;;;;;;5033424;28;20413;-72
2022/05/21 04:45:32;;;;;;;5.60;5.10;;;13.60;99.90;;;;;;5033023;28;20432;-73
2022/05/21 04:48:02;;;;;;;7.50;5.50;;;13.70;99.90;;;;;;5032591;28;20188;-74
2022/05/21 04:50:28;;;;;;;4.20;3.80;;;13.70;99.90;;;;;;5031658;28;20245;-71
2022/05/21 04:52:53;;;;;;;5.73;4.77;;;13.90;99.90;;;;;;5031412;28;20484;-71
2022/05/21 04:55:19;;;;;;;5.17;4.50;;;14.00;99.90;;;;;;5031652;28;20209;-72
2022/05/21 04:57:45;;;;;;;5.17;4.73;;;14.10;99.90;;;;;;5031519;28;20546;-72
2022/05/21 05:00:11;;;;;;;7.50;3.80;;;14.30;99.90;;;;;;5031163;28;20583;-72
2022/05/21 05:02:37;;;;;;;5.33;4.80;;;14.30;99.90;;;;;;5030994;28;20951;-72
2022/05/21 05:05:04;;;;;;;5.20;4.13;;;14.40;99.90;;;;;;5031508;28;20424;-71
2022/05/21 05:07:29;;;;;;;2.97;2.63;;;14.80;99.90;;;;;;5030900;28;20266;-71
2022/05/21 05:09:55;;;;;;;3.53;2.50;;;16.40;99.90;;;;;;5031473;28;20547;-72
2022/05/21 05:12:20;;;;;;;4.20;3.20;;;18.50;99.90;;;;;;5029344;28;20260;-72
2022/05/21 05:14:46;;;;;;;5.30;3.10;;;20.30;99.90;;;;;;5031410;28;20174;-72
2022/05/21 05:17:13;;;;;;;4.53;2.70;;;21.70;99.90;;;;;;5031674;28;20519;-73
2022/05/21 05:19:39;;;;;;;2.20;2.10;;;23.00;99.90;;;;;;5031601;28;20204;-73
2022/05/21 05:22:09;;;;;;;1.87;1.73;;;24.30;99.90;;;;;;5031696;28;20483;-75
2022/05/21 05:24:35;;;;;;;2.03;1.93;;;24.90;99.90;;;;;;5031736;28;20435;-75
2022/05/21 05:27:01;;;;;;;2.37;2.17;;;25.50;99.90;;;;;;5032073;28;20417;-75
2022/05/21 05:29:26;;;;;;;2.67;2.47;;;25.80;99.90;;;;;;5031385;28;20483;-74
2022/05/21 05:31:52;;;;;;;2.50;2.30;;;25.40;99.90;;;;;;5031024;28;20202;-74
2022/05/21 05:34:17;;;;;;;2.43;2.23;;;25.60;99.90;;;;;;5031453;28;20189;-74
2022/05/21 05:36:43;;;;;;;2.30;2.10;;;25.40;99.90;;;;;;5031356;28;20174;-75
2022/05/21 05:39:08;;;;;;;2.00;1.90;;;25.20;99.90;;;;;;5031199;28;20188;-73
2022/05/21 05:41:38;;;;;;;3.03;1.83;;;24.60;99.90;;;;;;5030639;28;20567;-73
2022/05/21 05:44:04;;;;;;;3.07;1.83;;;24.40;99.90;;;;;;5030131;28;20182;-72
2022/05/21 05:46:29;;;;;;;7.40;2.30;;;24.10;99.90;;;;;;5030785;28;20452;-74
2022/05/21 05:48:55;;;;;;;11.03;2.37;;;24.10;99.90;;;;;;5031127;28;20479;-73
2022/05/21 05:51:21;;;;;;;1.57;1.47;;;23.60;99.90;;;;;;5030729;28;20609;-74
2022/05/21 05:53:47;;;;;;;5.07;2.33;;;23.30;99.90;;;;;;5031071;28;20170;-74
2022/05/21 05:56:14;;;;;;;1.80;1.70;;;23.10;99.90;;;;;;5030125;28;20189;-73
2022/05/21 06:01:24;;;;;;;3.83;2.00;;;21.90;99.90;;;;;;5028999;28;20502;-73
2022/05/21 06:03:50;;;;;;;1.97;1.87;;;21.80;99.90;;;;;;5030147;28;20846;-74
2022/05/21 06:06:17;;;;;;;1.90;1.80;;;21.80;99.90;;;;;;5030027;28;20474;-74
2022/05/21 06:08:43;;;;;;;2.20;1.57;;;21.80;99.90;;;;;;5030643;28;20194;-73
2022/05/21 06:11:10;;;;;;;2.10;1.40;;;22.00;99.90;;;;;;5029997;28;20887;-76
2022/05/21 06:13:35;;;;;;;2.50;1.37;;;22.00;99.90;;;;;;5032282;28;20487;-75
2022/05/21 06:16:01;;;;;;;2.90;2.40;;;21.60;99.90;;;;;;5037610;28;20412;-74
2022/05/21 06:18:26;;;;;;;2.70;1.33;;;21.40;99.90;;;;;;5042668;28;20169;-73
2022/05/21 06:20:52;;;;;;;1.97;1.50;;;21.40;99.90;;;;;;5042697;28;20193;-74
2022/05/21 06:23:20;;;;;;;1.70;1.60;;;21.40;99.90;;;;;;5041417;28;20174;-73
2022/05/21 06:25:46;;;;;;;1.73;1.63;;;21.40;99.90;;;;;;5043665;28;20192;-75
2022/05/21 06:28:13;;;;;;;2.93;1.30;;;21.40;99.90;;;;;;5044173;28;20416;-73
2022/05/21 06:30:40;;;;;;;2.13;1.00;;;21.60;99.90;;;;;;5035619;28;20464;-73
2022/05/21 06:33:18;;;;;;;1.30;1.20;;;21.80;99.90;;;;;;5037215;28;20949;-74
2022/05/21 06:35:45;;;;;;;7.53;1.23;;;21.40;99.90;;;;;;5036348;28;21018;-73
2022/05/21 06:38:11;;;;;;;1.33;1.17;;;21.20;99.90;;;;;;5042182;28;20451;-73
2022/05/21 06:40:36;;;;;;;4.50;1.20;;;21.20;99.90;;;;;;5042044;28;20562;-73
2022/05/21 06:43:02;;;;;;;4.00;1.03;;;21.80;99.90;;;;;;5044822;28;20169;-74
2022/05/21 06:45:32;;;;;;;1.17;0.80;;;21.80;99.90;;;;;;5042175;28;20192;-74
2022/05/21 06:48:05;;;;;;;0.87;0.80;;;21.80;99.90;;;;;;5050536;28;20173;-74
2022/05/21 06:50:33;;;;;;;1.13;1.03;;;22.20;99.90;;;;;;5041294;28;20448;-73
2022/05/21 06:52:59;;;;;;;1.27;0.93;;;22.20;99.90;;;;;;5042580;28;20462;-74
2022/05/21 06:55:26;;;;;;;2.20;1.10;;;22.40;99.90;;;;;;5040039;28;20491;-73
2022/05/21 06:57:52;;;;;;;2.80;0.80;;;22.80;99.90;;;;;;5017669;28;20179;-73
2022/05/21 07:00:21;;;;;;;1.43;1.33;;;22.80;99.90;;;;;;5016713;28;20418;-73
2022/05/21 07:02:48;;;;;;;0.70;0.70;;;22.10;99.90;;;;;;5053529;28;20436;-73
2022/05/21 07:07:59;;;;;;;4.10;1.20;;;22.30;99.90;;;;;;5053790;28;20526;-73
2022/05/21 07:10:28;;;;;;;1.80;1.13;;;22.50;99.90;;;;;;5053280;28;20995;-72
2022/05/21 07:12:53;;;;;;;2.40;1.00;;;22.60;99.90;;;;;;5047474;28;20202;-75
2022/05/21 07:15:20;;;;;;;1.13;0.93;;;22.80;99.90;;;;;;5033519;28;20417;-75
2022/05/21 07:17:45;;;;;;;2.40;0.80;;;22.70;99.90;;;;;;5033703;28;20237;-76
2022/05/21 07:20:19;;;;;;;3.40;1.10;;;22.90;99.90;;;;;;5033084;28;20849;-74
2022/05/21 07:22:47;;;;;;;4.00;1.43;;;22.60;99.90;;;;;;5033677;28;20194;-74
2022/05/21 07:25:16;;;;;;;4.93;0.73;;;22.70;99.90;;;;;;5033231;28;20921;-75
2022/05/21 07:27:41;;;;;;;1.20;0.90;;;22.80;99.90;;;;;;5033687;28;20428;-74
2022/05/21 07:30:08;;;;;;;0.60;0.60;;;22.90;99.90;;;;;;5033000;28;20456;-74
2022/05/21 07:32:34;;;;;;;3.13;0.97;;;23.10;99.90;;;;;;5033025;28;20216;-74
2022/05/21 07:35:03;;;;;;;4.30;0.70;;;23.10;99.90;;;;;;5033251;28;20780;-75
2022/05/21 07:37:29;;;;;;;1.87;0.83;;;23.20;99.90;;;;;;5034325;28;20308;-76
2022/05/21 07:39:55;;;;;;;1.23;0.60;;;22.90;99.90;;;;;;5041153;28;20419;-76
2022/05/21 07:42:20;;;;;;;1.33;0.80;;;23.10;99.90;;;;;;5020558;28;20820;-75
2022/05/21 07:44:46;;;;;;;1.53;0.60;;;23.60;99.90;;;;;;5013315;28;20233;-75
2022/05/21 07:47:12;;;;;;;1.57;0.57;;;23.90;99.90;;;;;;5013185;28;20175;-74
2022/05/21 07:49:37;;;;;;;1.10;0.60;;;24.20;99.90;;;;;;5012177;28;20640;-76
2022/05/21 07:52:04;;;;;;;4.33;0.80;;;24.50;99.90;;;;;;5012373;28;20182;-74
2022/05/21 07:54:29;;;;;;;0.90;0.73;;;24.20;99.90;;;;;;5013168;28;20167;-74
2022/05/21 07:56:56;;;;;;;2.10;0.80;;;23.80;99.90;;;;;;5013174;28;20410;-72
2022/05/21 07:59:22;;;;;;;0.80;0.70;;;23.80;99.90;;;;;;5012889;28;20194;-74
2022/05/21 08:01:48;;;;;;;0.60;0.60;;;24.20;99.90;;;;;;5012746;28;20442;-74
2022/05/21 08:04:17;;;;;;;2.87;1.00;;;24.30;99.90;;;;;;5012969;28;20413;-74
2022/05/21 08:06:42;;;;;;;0.70;0.70;;;23.70;99.90;;;;;;5013053;28;20723;-74
2022/05/21 08:09:08;;;;;;;0.90;0.70;;;23.00;99.90;;;;;;5012863;28;20544;-74
2022/05/21 08:11:34;;;;;;;1.20;0.50;;;23.20;99.90;;;;;;5021652;28;20284;-75
2022/05/21 08:13:59;;;;;;;1.13;0.80;;;23.60;99.90;;;;;;5024867;28;20590;-74
2022/05/21 08:16:26;;;;;;;1.43;0.60;;;23.70;99.90;;;;;;5031350;28;20177;-74
2022/05/21 08:18:51;;;;;;;0.53;0.50;;;23.90;99.90;;;;;;5032642;28;20642;-73
2022/05/21 08:21:17;;;;;;;0.90;0.60;;;24.00;99.90;;;;;;5032081;28;20436;-74
2022/05/21 08:29:11;;;;;;;0.90;0.60;;;24.80;99.90;;;;;;5029102;28;20475;-74
2022/05/21 08:31:37;;;;;;;1.23;0.60;;;25.20;99.90;;;;;;5030175;28;20472;-74
2022/05/21 08:34:03;;;;;;;1.00;0.50;;;25.10;99.90;;;;;;5029017;28;20178;-75
2022/05/21 08:36:29;;;;;;;2.00;0.50;;;25.10;99.90;;;;;;5031395;28;20411;-77
2022/05/21 08:38:54;;;;;;;0.93;0.83;;;25.10;99.90;;;;;;5032153;28;20416;-76
2022/05/21 08:41:22;;;;;;;2.87;0.50;;;25.40;99.90;;;;;;5031998;28;20193;-74
2022/05/21 08:44:02;;;;;;;0.77;0.60;;;25.30;99.90;;;;;;5031964;28;20196;-76
2022/05/21 08:46:43;;;;;;;4.47;0.80;;;25.30;99.90;;;;;;5031703;28;20417;-76
2022/05/21 08:49:28;;;;;;;4.47;0.60;;;25.50;99.90;;;;;;5031663;28;20873;-76
2022/05/21 08:52:07;;;;;;;1.07;0.50;;;25.40;99.90;;;;;;5030515;28;20455;-76
2022/05/21 08:54:45;;;;;;;0.87;0.50;;;25.40;99.90;;;;;;5031817;28;20412;-76
2022/05/21 08:57:43;;;;;;;1.00;0.60;;;26.10;99.90;;;;;;5032076;28;20440;-75
2022/05/21 09:00:33;;;;;;;1.80;0.60;;;26.40;99.90;;;;;;5028972;28;20475;-75
2022/05/21 09:02:59;;;;;;;1.53;0.43;;;26.60;99.90;;;;;;5031827;28;20440;-75
2022/05/21 09:05:25;;;;;;;1.43;0.60;;;26.50;99.90;;;;;;5031516;28;20424;-75
2022/05/21 09:07:54;;;;;;;1.60;0.70;;;26.70;99.90;;;;;;5031689;28;20404;-75
2022/05/21 09:10:41;;;;;;;3.90;0.70;;;26.80;99.90;;;;;;5032969;28;20216;-75
2022/05/21 09:13:27;;;;;;;2.97;0.63;;;26.90;99.90;;;;;;5031407;28;20432;-76
2022/05/21 09:18:37;;;;;;;5.33;0.77;;;27.30;99.90;;;;;;5032073;28;20412;-75
2022/05/21 09:21:10;;;;;;;0.97;0.50;;;27.30;99.90;;;;;;5031378;28;20429;-75
2022/05/21 09:23:46;;;;;;;0.70;0.47;;;27.60;99.90;;;;;;5031832;28;20176;-75
2022/05/21 09:26:12;;;;;;;2.30;0.80;;;28.00;99.90;;;;;;5031147;28;20404;-75
2022/05/21 09:28:38;;;;;;;0.57;0.50;;;28.10;99.90;;;;;;5031384;28;20420;-75
2022/05/21 09:31:05;;;;;;;4.87;0.60;;;28.10;99.90;;;;;;5031186;28;20206;-75
2022/05/21 09:33:43;;;;;;;1.30;0.63;;;27.80;99.90;;;;;;5031307;28;20901;-75
2022/05/21 09:36:18;;;;;;;2.90;0.63;;;27.50;99.90;;;;;;5031053;28;20404;-75
2022/05/21 09:38:54;;;;;;;1.73;0.90;;;27.70;99.90;;;;;;5031406;28;20455;-75
2022/05/21 09:41:23;;;;;;;1.17;0.70;;;27.50;99.90;;;;;;5030860;28;20432;-75
2022/05/21 09:46:44;;;;;;;0.90;0.67;;;27.80;99.90;;;;;;5031518;28;20579;-76
2022/05/21 09:49:30;;;;;;;1.10;0.73;;;27.50;99.90;;;;;;5031006;28;20490;-75
2022/05/21 09:52:02;;;;;;;2.27;0.60;;;27.30;99.90;;;;;;5031062;28;20815;-75
2022/05/21 09:54:48;;;;;;;0.90;0.90;;;27.60;99.90;;;;;;5031188;28;20411;-73
2022/05/21 09:57:23;;;;;;;2.50;0.80;;;27.70;99.90;;;;;;5030647;28;20998;-75
2022/05/21 10:00:20;;;;;;;1.27;0.70;;;27.60;99.90;;;;;;5031170;28;21013;-75
2022/05/21 10:02:49;;;;;;;1.50;0.60;;;27.70;99.90;;;;;;5030797;28;20525;-75
2022/05/21 10:05:28;;;;;;;1.07;0.60;;;28.00;99.90;;;;;;5030986;28;20409;-75
2022/05/21 10:11:06;;;;;;;0.90;0.53;;;28.00;99.90;;;;;;5031218;28;20520;-74
2022/05/21 10:13:38;;;;;;;2.40;0.60;;;28.10;99.40;;;;;;5036903;28;20927;-74
2022/05/21 10:16:31;;;;;;;1.63;0.50;;;27.90;99.60;;;;;;5036298;28;20878;-75
2022/05/21 10:19:23;;;;;;;2.73;0.70;;;28.10;99.90;;;;;;5035591;28;20408;-75
2022/05/21 10:22:14;;;;;;;2.40;0.70;;;28.00;99.90;;;;;;5032727;28;20433;-75
2022/05/21 10:24:58;;;;;;;5.80;0.70;;;28.20;99.50;;;;;;5034609;28;20405;-75
2022/05/21 10:27:57;;;;;;;1.20;0.67;;;27.90;99.00;;;;;;5034283;28;20399;-74
2022/05/21 10:30:54;;;;;;;2.17;0.60;;;28.00;98.90;;;;;;5034270;28;20499;-75
2022/05/21 10:33:27;;;;;;;2.83;0.77;;;27.70;99.90;;;;;;5034224;28;20431;-74
2022/05/21 10:36:25;;;;;;;0.80;0.80;;;28.00;99.90;;;;;;5034235;28;20408;-75
2022/05/21 10:39:20;;;;;;;0.80;0.60;;;28.10;99.30;;;;;;5033888;28;20440;-74
2022/05/21 10:42:04;;;;;;;3.13;0.80;;;28.00;99.40;;;;;;5020640;28;20536;-75
2022/05/21 10:44:51;;;;;;;3.33;0.50;;;27.60;99.70;;;;;;5034028;28;20409;-74
2022/05/21 10:47:36;;;;;;;1.40;0.60;;;28.00;99.50;;;;;;5033476;28;20420;-75
2022/05/21 10:50:17;;;;;;;1.80;0.70;;;28.30;98.40;;;;;;5024855;28;20456;-75
2022/05/21 10:53:04;;;;;;;2.07;0.63;;;28.40;96.90;;;;;;5039816;28;20444;-77
2022/05/21 10:55:44;;;;;;;3.57;1.47;;;28.40;97.50;;;;;;5043362;28;20421;-75
2022/05/21 10:58:31;;;;;;;1.43;0.60;;;28.60;97.30;;;;;;5039345;28;20424;-75
2022/05/21 11:01:12;;;;;;;1.20;0.60;;;28.10;98.50;;;;;;5035203;28;20460;-75
2022/05/21 11:04:13;;;;;;;1.20;0.90;;;27.60;99.10;;;;;;5034209;28;20854;-75
2022/05/21 11:07:22;;;;;;;1.27;0.80;;;27.60;97.00;;;;;;4992231;28;20432;-75
2022/05/21 11:10:15;;;;;;;1.33;0.60;;;26.90;97.50;;;;;;5033258;28;20460;-76
2022/05/21 11:12:46;;;;;;;1.27;0.90;;;26.60;99.00;;;;;;5032857;28;20451;-75
2022/05/21 11:15:23;;;;;;;1.73;0.70;;;26.50;99.20;;;;;;5033333;28;20504;-75
2022/05/21 11:17:59;;;;;;;3.80;0.70;;;26.60;99.90;;;;;;5031178;28;20511;-75
2022/05/21 11:20:31;;;;;;;2.30;0.80;;;26.90;99.90;;;;;;5032998;28;20526;-76
2022/05/21 11:23:11;;;;;;;0.60;0.50;;;27.00;99.00;;;;;;5031169;28;20456;-77
2022/05/21 11:26:05;;;;;;;0.93;0.60;;;27.10;99.70;;;;;;5032796;28;20436;-75
2022/05/21 11:28:40;;;;;;;0.90;0.73;;;27.00;98.70;;;;;;5024248;28;20487;-75
2022/05/21 11:31:18;;;;;;;1.17;0.63;;;27.00;99.40;;;;;;5032324;28;20479;-75
2022/05/21 11:39:20;;;;;;;1.87;0.60;;;26.50;99.90;;;;;;5033015;28;20453;-74
2022/05/21 11:41:54;;;;;;;0.80;0.63;;;26.00;98.00;;;;;;5033807;28;20443;-74
2022/05/21 11:47:08;;;;;;;1.10;0.60;;;26.30;99.80;;;;;;5032265;28;20459;-74
2022/05/21 11:50:07;;;;;;;0.90;0.60;;;26.30;99.90;;;;;;5033320;28;20895;-74
2022/05/21 11:52:35;;;;;;;0.70;0.60;;;26.40;98.60;;;;;;5033640;28;20437;-74
2022/05/21 11:55:13;;;;;;;2.20;0.60;;;26.50;98.40;;;;;;5032416;28;20503;-73
2022/05/21 11:57:44;;;;;;;2.50;1.07;;;26.40;98.80;;;;;;5021958;28;20575;-75
2022/05/21 12:00:25;;;;;;;1.77;1.00;;;26.40;99.90;;;;;;5013072;28;20425;-72
2022/05/21 12:02:53;;;;;;;0.80;0.60;;;26.40;98.50;;;;;;5015928;28;20487;-75
2022/05/21 12:05:34;;;;;;;0.90;0.73;;;26.40;99.80;;;;;;5031855;28;20421;-74
2022/05/21 12:08:12;;;;;;;2.20;0.80;;;26.20;99.50;;;;;;5031529;28;20416;-74
2022/05/21 12:11:02;;;;;;;1.37;0.70;;;26.20;98.60;;;;;;5031952;28;20467;-74
2022/05/21 12:13:33;;;;;;;1.93;0.73;;;26.00;99.00;;;;;;5032159;28;20893;-74
2022/05/21 12:16:22;;;;;;;2.20;1.10;;;26.10;99.50;;;;;;5032458;28;20492;-74
2022/05/21 12:18:53;;;;;;;1.30;0.97;;;25.90;99.90;;;;;;5017574;28;20521;-77
2022/05/21 12:21:28;;;;;;;1.33;0.70;;;25.90;99.80;;;;;;5031533;28;20494;-76
2022/05/21 12:23:54;;;;;;;1.83;0.93;;;26.00;99.20;;;;;;5032122;28;20424;-77
2022/05/21 12:26:30;;;;;;;3.57;0.80;;;26.00;98.60;;;;;;5031846;28;20439;-76
2022/05/21 12:29:13;;;;;;;2.33;0.70;;;25.80;99.00;;;;;;5027383;28;20459;-76
2022/05/21 12:31:45;;;;;;;1.20;0.70;;;25.70;98.30;;;;;;5031972;28;20861;-76
2022/05/21 12:34:11;;;;;;;5.73;1.00;;;25.50;98.50;;;;;;5031628;28;20913;-77
2022/05/21 12:37:23;;;;;;;0.90;0.70;;;25.50;98.70;;;;;;5032413;28;20500;-77
2022/05/21 12:40:00;;;;;;;2.60;0.60;;;25.40;99.90;;;;;;5032469;28;20545;-76
2022/05/21 12:42:43;;;;;;;1.30;0.73;;;25.50;97.40;;;;;;5031262;28;20526;-76
2022/05/21 12:45:11;;;;;;;7.80;0.60;;;25.30;98.20;;;;;;5031775;28;20498;-76
2022/05/21 12:47:40;;;;;;;5.43;0.70;;;25.30;98.30;;;;;;5032592;28;20408;-77
2022/05/21 12:50:20;;;;;;;1.33;0.83;;;25.20;99.30;;;;;;5032262;28;21072;-76
2022/05/21 12:52:50;;;;;;;2.17;0.70;;;25.20;98.50;;;;;;5032284;28;20449;-76
2022/05/21 12:55:25;;;;;;;4.07;0.73;;;25.20;99.80;;;;;;5033762;28;20424;-76
2022/05/21 12:58:15;;;;;;;2.00;0.70;;;25.50;99.20;;;;;;5033713;28;20416;-78
2022/05/21 13:00:51;;;;;;;3.07;0.70;;;25.20;98.10;;;;;;5033221;28;20424;-76
2022/05/21 13:03:18;;;;;;;3.07;1.10;;;25.20;99.50;;;;;;5032559;28;20413;-77
2022/05/21 13:05:52;;;;;;;0.80;0.70;;;25.20;98.90;;;;;;5031920;28;20413;-76
2022/05/21 13:08:19;;;;;;;2.43;0.67;;;25.20;98.60;;;;;;5031926;28;20415;-77
2022/05/21 13:10:59;;;;;;;0.93;0.80;;;25.20;97.40;;;;;;5031403;28;20464;-76
2022/05/21 13:13:25;;;;;;;1.37;0.70;;;25.20;97.60;;;;;;5031855;28;20482;-77
2022/05/21 13:16:00;;;;;;;1.10;0.67;;;25.30;96.50;;;;;;5031752;28;20416;-76
2022/05/21 13:18:50;;;;;;;2.40;0.73;;;25.30;98.50;;;;;;5032139;28;20812;-77
2022/05/21 13:21:37;;;;;;;2.00;0.70;;;25.30;99.00;;;;;;5030214;28;20428;-76
2022/05/21 13:24:21;;;;;;;2.37;0.80;;;25.30;98.40;;;;;;5031990;28;20447;-76
2022/05/21 13:27:16;;;;;;;6.30;1.03;;;25.10;96.60;;;;;;5031688;28;20458;-77
2022/05/21 13:29:43;;;;;;;2.03;0.70;;;24.80;96.70;;;;;;5031752;28;20861;-77
2022/05/21 13:32:28;;;;;;;0.60;0.50;;;24.60;96.50;;;;;;5031197;28;20452;-76
2022/05/21 13:34:58;;;;;;;3.63;0.63;;;24.70;97.80;;;;;;5031967;28;20498;-77
2022/05/21 13:37:31;;;;;;;1.90;0.83;;;24.80;97.90;;;;;;5031566;28;20459;-77
2022/05/21 13:40:13;;;;;;;1.90;0.60;;;24.80;97.00;;;;;;5032079;28;20878;-76
2022/05/21 13:42:42;;;;;;;4.97;1.20;;;24.80;97.30;;;;;;5031540;28;20864;-77
2022/05/21 13:45:17;;;;;;;2.07;0.63;;;24.50;98.60;;;;;;5032188;28;20412;-77
2022/05/21 13:47:51;;;;;;;0.90;0.70;;;24.40;99.30;;;;;;5035881;28;20435;-76
2022/05/21 13:50:22;;;;;;;2.17;0.70;;;24.40;99.90;;;;;;5035534;28;20470;-77
2022/05/21 13:52:48;;;;;;;3.10;0.73;;;24.30;99.60;;;;;;5035355;28;20424;-76
2022/05/21 13:55:14;;;;;;;3.97;0.80;;;24.20;99.90;;;;;;5035582;28;20413;-77
2022/05/21 13:57:41;;;;;;;1.20;0.60;;;24.10;99.90;;;;;;5035580;28;20913;-77
2022/05/21 14:00:07;;;;;;;2.07;1.00;;;23.90;99.90;;;;;;5034152;28;20917;-77
2022/05/21 14:02:38;;;;;;;1.70;1.10;;;23.90;99.90;;;;;;5034885;28;20473;-76
2022/05/21 14:05:25;;;;;;;1.27;0.80;;;23.90;99.90;;;;;;5035278;28;20681;-78
2022/05/21 14:07:55;;;;;;;1.70;0.57;;;23.90;99.90;;;;;;5035984;28;20786;-76
2022/05/21 14:10:39;;;;;;;4.10;0.90;;;23.90;99.90;;;;;;5034819;28;20456;-76
2022/05/21 14:13:06;;;;;;;2.60;0.83;;;23.80;99.90;;;;;;5035436;28;21006;-77
2022/05/21 14:15:41;;;;;;;3.03;1.10;;;23.80;99.90;;;;;;5035557;28;20420;-77
2022/05/21 14:18:07;;;;;;;5.37;0.90;;;23.80;99.90;;;;;;5033983;28;20416;-76
2022/05/21 14:20:37;;;;;;;1.73;0.63;;;23.80;99.90;;;;;;5034581;28;20428;-74
2022/05/21 14:23:42;;;;;;;2.93;0.97;;;23.70;99.90;;;;;;5035214;28;20205;-77
2022/05/21 14:26:33;;;;;;;2.83;0.83;;;23.40;99.90;;;;;;4954504;29;20992;-77
2022/05/21 14:29:31;;;;;;;2.90;1.43;;;23.40;99.90;;;;;;4954240;29;20464;-75
2022/05/21 14:32:29;;;;;;;1.47;0.90;;;23.40;99.90;;;;;;5016889;28;20456;-77
2022/05/21 14:35:21;;;;;;;1.27;0.67;;;23.60;99.90;;;;;;5034536;28;20499;-77
2022/05/21 14:37:51;;;;;;;1.43;1.03;;;23.60;99.90;;;;;;5034800;28;20409;-76
2022/05/21 14:40:17;;;;;;;2.53;0.70;;;23.50;99.90;;;;;;5034113;28;20455;-77
2022/05/21 14:42:44;;;;;;;3.10;0.73;;;23.40;99.90;;;;;;5034273;28;20433;-76
2022/05/21 14:45:30;;;;;;;1.20;0.77;;;23.20;99.90;;;;;;5034299;28;20411;-75
2022/05/21 14:47:56;;;;;;;1.13;0.63;;;23.10;99.90;;;;;;5034425;28;20459;-76
2022/05/21 14:53:21;;;;;;;2.30;1.10;;;23.10;99.90;;;;;;5034245;28;20403;-76
2022/05/21 14:55:50;;;;;;;5.93;0.90;;;23.20;99.90;;;;;;5034190;28;20444;-76
2022/05/21 14:58:17;;;;;;;1.57;0.70;;;23.20;99.90;;;;;;5032796;28;20436;-76
2022/05/21 15:00:43;;;;;;;0.93;0.70;;;23.30;99.90;;;;;;5031267;28;20435;-75
2022/05/21 15:03:09;;;;;;;2.93;1.27;;;23.40;99.90;;;;;;5031111;28;20460;-73
2022/05/21 15:05:36;;;;;;;2.60;1.43;;;23.40;99.90;;;;;;5032325;28;20456;-76
2022/05/21 15:08:02;;;;;;;2.20;0.70;;;23.30;99.90;;;;;;5032860;28;20568;-76
2022/05/21 15:10:28;;;;;;;1.53;0.80;;;23.10;99.90;;;;;;5032256;28;20472;-75
2022/05/21 15:12:54;;;;;;;0.70;0.70;;;23.00;99.90;;;;;;5031988;28;20457;-75
2022/05/21 15:15:21;;;;;;;2.70;0.87;;;22.90;99.90;;;;;;5032556;28;20456;-74
2022/05/21 15:17:47;;;;;;;1.57;0.60;;;22.90;99.90;;;;;;5032609;28;20522;-76